createdAt,value
2022-12-25T00:01:33.456Z,6.95
2022-12-25T00:04:00.763Z,6.98
2022-12-25T00:06:28.377Z,7.04
2022-12-25T00:08:55.512Z,7.08
2022-12-25T00:11:22.700Z,7.10
2022-12-25T00:13:50.159Z,7.14
2022-12-25T00:16:26.305Z,7.15
2022-12-25T00:18:55.910Z,7.21
2022-12-25T00:21:23.341Z,7.24
2022-12-25T00:23:56.038Z,7.24
2022-12-25T00:26:25.042Z,7.28
2022-12-25T00:28:57.648Z,7.28
2022-12-25T00:31:26.115Z,7.32
2022-12-25T00:33:53.769Z,7.36
2022-12-25T00:36:23.638Z,7.40
2022-12-25T00:38:50.876Z,7.42
2022-12-25T00:41:42.167Z,7.45
2022-12-25T00:44:13.402Z,7.48
2022-12-25T00:46:42.339Z,7.50
2022-12-25T00:49:10.499Z,7.53
2022-12-25T00:51:37.843Z,7.54
2022-12-25T00:54:04.916Z,7.55
2022-12-25T00:56:32.079Z,7.61
2022-12-25T00:58:59.211Z,7.60
2022-12-25T01:01:26.447Z,7.61
2022-12-25T01:03:53.697Z,7.62
2022-12-25T01:06:20.752Z,7.62
2022-12-25T01:09:06.512Z,7.64
2022-12-25T01:11:33.826Z,7.64
2022-12-25T01:14:00.953Z,7.69
2022-12-25T01:16:28.648Z,7.68
2022-12-25T01:18:56.138Z,7.68
2022-12-25T01:21:24.141Z,7.72
2022-12-25T01:23:52.927Z,7.77
2022-12-25T01:26:24.364Z,7.73
2022-12-25T01:28:51.753Z,7.71
2022-12-25T01:31:22.297Z,7.75
2022-12-25T01:33:49.929Z,7.78
2022-12-25T01:36:23.860Z,7.76
2022-12-25T01:38:52.712Z,7.77
2022-12-25T01:41:23.161Z,7.79
2022-12-25T01:44:07.810Z,7.80
2022-12-25T01:46:36.797Z,7.81
2022-12-25T01:49:25.498Z,7.81
2022-12-25T01:52:10.628Z,7.84
2022-12-25T01:54:48.059Z,7.85
2022-12-25T01:57:29.530Z,7.84
2022-12-25T01:59:59.473Z,7.79
2022-12-25T02:02:28.581Z,7.81
2022-12-25T02:05:38.560Z,7.77
2022-12-25T02:08:10.413Z,7.75
2022-12-25T02:10:39.126Z,7.74
2022-12-25T02:13:08.088Z,7.67
2022-12-25T02:16:13.366Z,7.67
2022-12-25T02:19:24.362Z,7.63
2022-12-25T02:23:03.620Z,7.58
2022-12-25T02:26:26.779Z,7.50
2022-12-25T02:29:52.218Z,7.51
2022-12-25T02:32:33.974Z,7.49
2022-12-25T02:35:07.522Z,7.44
2022-12-25T02:37:51.681Z,7.44
2022-12-25T02:40:41.379Z,7.48
2022-12-25T02:44:00.201Z,7.49
2022-12-25T02:46:49.353Z,7.48
2022-12-25T02:49:42.628Z,7.47
2022-12-25T02:52:35.798Z,7.48
2022-12-25T02:55:33.103Z,7.46
2022-12-25T02:58:24.593Z,7.48
2022-12-25T03:01:20.408Z,7.54
2022-12-25T03:04:09.689Z,7.58
2022-12-25T03:06:45.705Z,7.63
2022-12-25T03:09:51.744Z,7.65
2022-12-25T03:12:39.459Z,7.70
2022-12-25T03:15:27.678Z,7.66
2022-12-25T03:17:58.949Z,7.66
2022-12-25T03:20:44.982Z,7.69
2022-12-25T03:23:34.638Z,7.73
2022-12-25T03:26:20.509Z,7.76
2022-12-25T03:28:47.613Z,7.80
2022-12-25T03:31:43.925Z,7.87
2022-12-25T03:35:23.190Z,7.87
2022-12-25T03:38:52.222Z,7.89
2022-12-25T03:41:59.939Z,7.94
2022-12-25T03:44:53.872Z,7.96
2022-12-25T03:47:52.325Z,8.00
2022-12-25T03:50:45.234Z,8.01
2022-12-25T03:53:43.762Z,8.04
2022-12-25T03:56:31.761Z,8.04
2022-12-25T03:59:23.532Z,8.09
2022-12-25T04:02:11.076Z,8.07
2022-12-25T04:04:57.177Z,8.08
2022-12-25T04:07:43.057Z,8.10
2022-12-25T04:10:29.150Z,8.06
2022-12-25T04:13:15.114Z,8.04
2022-12-25T04:16:00.937Z,8.01
2022-12-25T04:18:46.688Z,7.98
2022-12-25T04:21:32.381Z,8.00
2022-12-25T04:24:18.181Z,7.97
2022-12-25T04:27:03.918Z,7.93
2022-12-25T04:29:49.813Z,7.91
2022-12-25T04:32:35.898Z,7.93
2022-12-25T04:35:21.492Z,7.85
2022-12-25T04:37:48.598Z,7.85
2022-12-25T04:40:15.859Z,7.84
2022-12-25T04:42:42.942Z,7.84
2022-12-25T04:45:10.805Z,7.83
2022-12-25T04:47:38.076Z,7.82
2022-12-25T04:50:06.033Z,7.80
2022-12-25T04:52:41.282Z,7.78
2022-12-25T04:55:10.026Z,7.78
2022-12-25T04:57:37.301Z,7.74
2022-12-25T05:00:06.757Z,7.70
2022-12-25T05:02:34.097Z,7.69
2022-12-25T05:05:01.383Z,7.68
2022-12-25T05:07:28.551Z,7.66
2022-12-25T05:09:55.629Z,7.62
2022-12-25T05:12:22.770Z,7.62
2022-12-25T05:14:49.818Z,7.63
2022-12-25T05:17:16.867Z,7.57
2022-12-25T05:19:44.020Z,7.55
2022-12-25T05:22:11.181Z,7.57
2022-12-25T05:24:38.478Z,7.57
2022-12-25T05:27:05.581Z,7.55
2022-12-25T05:29:32.642Z,7.55
2022-12-25T05:31:59.735Z,7.55
2022-12-25T05:34:26.788Z,7.54
2022-12-25T05:36:53.844Z,7.52
2022-12-25T05:39:20.998Z,7.53
2022-12-25T05:41:48.196Z,7.53
2022-12-25T05:44:15.340Z,7.54
2022-12-25T05:46:42.475Z,7.52
2022-12-25T05:49:09.730Z,7.51
2022-12-25T05:51:36.910Z,7.51
2022-12-25T05:54:04.323Z,7.48
2022-12-25T05:56:31.472Z,7.50
2022-12-25T05:58:58.518Z,7.49
2022-12-25T06:01:28.649Z,7.49
2022-12-25T06:03:57.528Z,7.51
2022-12-25T06:06:24.897Z,7.53
2022-12-25T06:08:55.071Z,7.53
2022-12-25T06:11:22.518Z,7.53
2022-12-25T06:13:51.795Z,7.55
2022-12-25T06:16:19.582Z,7.55
2022-12-25T06:18:52.043Z,7.58
2022-12-25T06:21:19.373Z,7.60
2022-12-25T06:23:46.726Z,7.61
2022-12-25T06:26:17.788Z,7.61
2022-12-25T06:28:45.533Z,7.64
2022-12-25T06:31:16.939Z,7.65
2022-12-25T06:33:44.474Z,7.68
2022-12-25T06:36:21.193Z,7.70
2022-12-25T06:38:48.694Z,7.74
2022-12-25T06:41:22.494Z,7.77
2022-12-25T06:43:52.388Z,7.80
2022-12-25T06:46:21.185Z,7.85
2022-12-25T06:48:49.759Z,7.86
2022-12-25T06:51:19.480Z,7.90
2022-12-25T06:53:48.202Z,7.91
2022-12-25T06:56:19.987Z,7.93
2022-12-25T06:58:50.381Z,7.95
2022-12-25T07:01:46.893Z,7.97
2022-12-25T07:04:24.375Z,8.01
2022-12-25T07:06:51.585Z,8.00
2022-12-25T07:09:18.688Z,8.01
2022-12-25T07:11:45.797Z,8.03
2022-12-25T07:14:24.458Z,8.05
2022-12-25T07:16:52.216Z,8.04
2022-12-25T07:19:19.484Z,8.03
2022-12-25T07:21:47.209Z,8.06
2022-12-25T07:24:21.968Z,8.09
2022-12-25T07:26:50.812Z,8.09
2022-12-25T07:29:19.528Z,8.11
2022-12-25T07:31:46.904Z,8.10
2022-12-25T07:34:13.985Z,8.12
2022-12-25T07:36:41.090Z,8.15
2022-12-25T07:39:10.383Z,8.17
2022-12-25T07:41:37.731Z,8.17
2022-12-25T07:44:15.226Z,8.16
2022-12-25T07:46:42.911Z,8.20
2022-12-25T07:49:11.215Z,8.22
2022-12-25T07:51:38.586Z,8.21
2022-12-25T07:54:05.765Z,8.19
2022-12-25T07:56:33.418Z,8.21
2022-12-25T07:59:00.494Z,8.21
2022-12-25T08:01:28.548Z,8.26
2022-12-25T08:04:01.355Z,8.23
2022-12-25T08:06:34.864Z,8.19
2022-12-25T08:09:13.219Z,8.19
2022-12-25T08:11:44.513Z,8.23
2022-12-25T08:14:11.591Z,8.25
2022-12-25T08:16:42.261Z,8.23
2022-12-25T08:19:10.117Z,8.24
2022-12-25T08:21:38.073Z,8.24
2022-12-25T08:24:05.493Z,8.24
2022-12-25T08:26:32.601Z,8.25
2022-12-25T08:28:59.704Z,8.23
2022-12-25T08:31:29.591Z,8.23
2022-12-25T08:33:58.675Z,8.26
2022-12-25T08:36:26.140Z,8.28
2022-12-25T08:38:58.561Z,8.26
2022-12-25T08:41:29.490Z,8.28
2022-12-25T08:43:56.573Z,8.30
2022-12-25T08:46:24.370Z,8.26
2022-12-25T08:48:51.600Z,8.29
2022-12-25T08:51:22.053Z,8.26
2022-12-25T08:53:50.982Z,8.31
2022-12-25T08:56:19.184Z,8.31
2022-12-25T08:58:47.018Z,8.35
2022-12-25T09:01:14.471Z,8.34
2022-12-25T09:03:42.867Z,8.34
2022-12-25T09:06:14.405Z,8.35
2022-12-25T09:08:48.123Z,8.34
2022-12-25T09:11:18.763Z,8.33
2022-12-25T09:13:46.317Z,8.39
2022-12-25T09:16:18.096Z,8.36
2022-12-25T09:18:45.261Z,8.37
2022-12-25T09:21:14.585Z,8.41
2022-12-25T09:23:41.912Z,8.39
2022-12-25T09:26:13.966Z,8.40
2022-12-25T09:28:46.575Z,8.39
2022-12-25T09:31:17.631Z,8.45
2022-12-25T09:33:44.752Z,8.47
2022-12-25T09:36:12.104Z,8.48
2022-12-25T09:38:39.383Z,8.48
2022-12-25T09:41:31.907Z,8.48
2022-12-25T09:44:11.429Z,8.50
2022-12-25T09:46:47.811Z,8.56
2022-12-25T09:49:30.147Z,8.53
2022-12-25T09:52:11.158Z,8.50
2022-12-25T09:55:20.705Z,8.56
2022-12-25T09:57:56.085Z,8.58
2022-12-25T10:00:34.767Z,8.58
2022-12-25T10:03:35.643Z,8.64
2022-12-25T10:06:22.698Z,8.61
2022-12-25T10:08:56.625Z,8.61
2022-12-25T10:11:55.945Z,8.64
2022-12-25T10:14:34.129Z,8.56
2022-12-25T10:17:05.039Z,8.59
2022-12-25T10:19:49.715Z,8.55
2022-12-25T10:22:50.835Z,8.60
2022-12-25T10:25:22.729Z,8.60
2022-12-25T10:28:12.038Z,8.55
2022-12-25T10:30:43.023Z,8.58
2022-12-25T10:33:16.867Z,8.56
2022-12-25T10:35:45.570Z,8.56
2022-12-25T10:38:19.535Z,8.55
2022-12-25T10:41:19.629Z,8.61
2022-12-25T10:43:54.004Z,8.58
2022-12-25T10:46:24.687Z,8.61
2022-12-25T10:48:59.760Z,8.60
2022-12-25T10:51:33.895Z,8.62
2022-12-25T10:54:17.476Z,8.60
2022-12-25T10:56:58.504Z,8.63
2022-12-25T10:59:27.811Z,8.60
2022-12-25T11:01:57.154Z,8.60
2022-12-25T11:04:28.745Z,8.61
2022-12-25T11:07:19.840Z,8.63
2022-12-25T11:10:05.770Z,8.66
2022-12-25T11:12:42.757Z,8.65
2022-12-25T11:15:40.916Z,8.70
2022-12-25T11:18:28.599Z,8.67
2022-12-25T11:20:59.762Z,8.66
2022-12-25T11:23:30.612Z,8.71
2022-12-25T11:26:08.237Z,8.69
2022-12-25T11:28:39.213Z,8.71
2022-12-25T11:31:12.863Z,8.70
2022-12-25T11:33:47.653Z,8.72
2022-12-25T11:36:44.640Z,8.72
2022-12-25T11:39:37.510Z,8.78
2022-12-25T11:42:37.395Z,8.75
2022-12-25T11:45:28.407Z,8.83
2022-12-25T11:48:07.461Z,8.85
2022-12-25T11:50:45.853Z,8.89
2022-12-25T11:53:48.590Z,8.91
2022-12-25T11:56:22.625Z,8.86
2022-12-25T11:58:53.248Z,8.86
2022-12-25T12:01:43.100Z,8.94
2022-12-25T12:04:42.921Z,8.93
2022-12-25T12:07:29.258Z,8.95
2022-12-25T12:10:31.402Z,8.90
2022-12-25T12:13:47.685Z,8.90
2022-12-25T12:16:14.949Z,8.94
2022-12-25T12:18:48.075Z,8.96
2022-12-25T12:21:18.271Z,8.93
2022-12-25T12:23:55.941Z,8.88
2022-12-25T12:26:29.580Z,8.93
2022-12-25T12:29:03.608Z,8.91
2022-12-25T12:31:42.031Z,8.96
2022-12-25T12:34:24.029Z,8.91
2022-12-25T12:36:56.778Z,8.88
2022-12-25T12:39:37.013Z,8.86
2022-12-25T12:42:15.516Z,8.93
2022-12-25T12:44:43.186Z,8.90
2022-12-25T12:47:31.411Z,8.97
2022-12-25T12:50:01.194Z,8.95
2022-12-25T12:52:38.162Z,8.90
2022-12-25T12:55:13.108Z,8.92
2022-12-25T12:57:41.429Z,8.93
2022-12-25T13:00:19.464Z,8.90
2022-12-25T13:02:52.673Z,8.87
2022-12-25T13:05:39.553Z,8.88
2022-12-25T13:08:40.853Z,8.89
2022-12-25T13:11:24.298Z,8.86
2022-12-25T13:13:54.944Z,8.90
2022-12-25T13:16:33.398Z,8.84
2022-12-25T13:19:10.897Z,8.86
2022-12-25T13:21:38.164Z,8.87
2022-12-25T13:24:18.179Z,8.85
2022-12-25T13:26:45.353Z,8.90
2022-12-25T13:29:34.579Z,8.86
2022-12-25T13:32:04.755Z,8.91
2022-12-25T13:34:38.672Z,8.88
2022-12-25T13:37:15.186Z,8.88
2022-12-25T13:39:56.766Z,8.86
2022-12-25T13:42:31.849Z,8.84
2022-12-25T13:45:15.525Z,8.84
2022-12-25T13:47:48.696Z,8.86
2022-12-25T13:50:31.835Z,8.88
2022-12-25T13:53:13.174Z,8.88
2022-12-25T13:55:42.584Z,8.89
2022-12-25T13:58:31.489Z,8.85
2022-12-25T14:01:00.797Z,8.88
2022-12-25T14:03:40.729Z,8.89
2022-12-25T14:06:16.842Z,8.90
2022-12-25T14:08:44.998Z,8.83
2022-12-25T14:11:16.322Z,8.85
2022-12-25T14:13:47.161Z,8.87
2022-12-25T14:16:18.786Z,8.84
2022-12-25T14:19:01.574Z,8.87
2022-12-25T14:21:34.518Z,8.87
2022-12-25T14:24:01.947Z,8.82
2022-12-25T14:26:32.595Z,8.86
2022-12-25T14:29:05.649Z,8.84
2022-12-25T14:31:34.204Z,8.84
2022-12-25T14:34:04.397Z,8.85
2022-12-25T14:36:32.911Z,8.85
2022-12-25T14:39:04.165Z,8.84
2022-12-25T14:41:38.183Z,8.86
2022-12-25T14:44:29.561Z,8.84
2022-12-25T14:47:11.635Z,8.84
2022-12-25T14:49:39.231Z,8.88
2022-12-25T14:52:21.778Z,8.89
2022-12-25T14:54:54.112Z,8.86
2022-12-25T14:57:41.086Z,8.85
2022-12-25T15:00:43.833Z,8.86
2022-12-25T15:03:43.986Z,8.86
2022-12-25T15:06:24.775Z,8.86
2022-12-25T15:09:01.261Z,8.85
2022-12-25T15:11:29.613Z,8.85
2022-12-25T15:13:57.056Z,8.84
2022-12-25T15:16:31.303Z,8.84
2022-12-25T15:19:00.864Z,8.82
2022-12-25T15:21:34.687Z,8.87
2022-12-25T15:24:02.395Z,8.90
2022-12-25T15:26:31.755Z,8.87
2022-12-25T15:28:59.243Z,8.88
2022-12-25T15:31:30.923Z,8.84
2022-12-25T15:34:01.160Z,8.83
2022-12-25T15:36:29.015Z,8.83
2022-12-25T15:38:56.459Z,8.87
2022-12-25T15:41:50.203Z,8.84
2022-12-25T15:44:17.720Z,8.83
2022-12-25T15:46:46.064Z,8.83
2022-12-25T15:49:14.468Z,8.80
2022-12-25T15:51:42.873Z,8.84
2022-12-25T15:54:10.541Z,8.85
2022-12-25T15:56:53.984Z,8.86
2022-12-25T15:59:22.107Z,8.82
2022-12-25T16:01:53.302Z,8.82
2022-12-25T16:04:22.328Z,8.80
2022-12-25T16:06:50.981Z,8.83
2022-12-25T16:09:22.902Z,8.86
2022-12-25T16:11:50.552Z,8.82
2022-12-25T16:14:19.764Z,8.83
2022-12-25T16:16:47.000Z,8.82
2022-12-25T16:19:14.161Z,8.84
2022-12-25T16:21:46.171Z,8.78
2022-12-25T16:24:14.055Z,8.79
2022-12-25T16:26:41.669Z,8.80
2022-12-25T16:29:09.148Z,8.81
2022-12-25T16:31:38.594Z,8.81
2022-12-25T16:34:07.676Z,8.81
2022-12-25T16:36:36.088Z,8.78
2022-12-25T16:39:04.687Z,8.79
2022-12-25T16:41:32.626Z,8.81
2022-12-25T16:44:03.001Z,8.80
2022-12-25T16:46:30.085Z,8.80
2022-12-25T16:48:57.493Z,8.79
2022-12-25T16:51:24.644Z,8.81
2022-12-25T16:53:53.195Z,8.80
2022-12-25T16:56:20.717Z,8.79
2022-12-25T16:58:48.447Z,8.79
2022-12-25T17:01:19.853Z,8.79
2022-12-25T17:03:47.788Z,8.74
2022-12-25T17:06:26.859Z,8.76
2022-12-25T17:08:58.772Z,8.76
2022-12-25T17:11:32.639Z,8.74
2022-12-25T17:14:03.558Z,8.76
2022-12-25T17:16:33.948Z,8.76
2022-12-25T17:19:05.172Z,8.78
2022-12-25T17:21:34.166Z,8.78
2022-12-25T17:24:04.020Z,8.81
2022-12-25T17:26:32.572Z,8.78
2022-12-25T17:28:59.888Z,8.78
2022-12-25T17:31:27.202Z,8.79
2022-12-25T17:33:54.682Z,8.79
2022-12-25T17:36:22.690Z,8.78
2022-12-25T17:38:49.999Z,8.78
2022-12-25T17:41:19.426Z,8.75
2022-12-25T17:43:47.112Z,8.78
2022-12-25T17:46:19.856Z,8.76
2022-12-25T17:48:47.573Z,8.75
2022-12-25T17:51:17.022Z,8.76
2022-12-25T17:53:47.370Z,8.77
2022-12-25T17:56:15.818Z,8.75
2022-12-25T17:58:43.973Z,8.72
2022-12-25T18:01:16.418Z,8.75
2022-12-25T18:03:45.559Z,8.72
2022-12-25T18:06:17.041Z,8.72
2022-12-25T18:08:46.557Z,8.72
2022-12-25T18:11:20.718Z,8.71
2022-12-25T18:13:52.040Z,8.66
2022-12-25T18:16:23.450Z,8.70
2022-12-25T18:18:52.711Z,8.70
2022-12-25T18:21:22.679Z,8.70
2022-12-25T18:23:50.524Z,8.71
2022-12-25T18:26:18.736Z,8.69
2022-12-25T18:28:46.199Z,8.66
2022-12-25T18:31:24.475Z,8.67
2022-12-25T18:33:51.736Z,8.64
2022-12-25T18:36:26.804Z,8.68
2022-12-25T18:38:55.041Z,8.71
2022-12-25T18:41:23.280Z,8.67
2022-12-25T18:43:54.011Z,8.66
2022-12-25T18:46:27.390Z,8.66
2022-12-25T18:48:56.546Z,8.65
2022-12-25T18:51:24.470Z,8.59
2022-12-25T18:53:51.906Z,8.65
2022-12-25T18:56:20.283Z,8.62
2022-12-25T18:58:47.819Z,8.63
2022-12-25T19:01:21.548Z,8.61
2022-12-25T19:03:50.527Z,8.63
2022-12-25T19:06:25.529Z,8.63
2022-12-25T19:08:54.363Z,8.64
2022-12-25T19:11:23.327Z,8.62
2022-12-25T19:13:50.564Z,8.61
2022-12-25T19:16:18.134Z,8.58
2022-12-25T19:18:46.162Z,8.62
2022-12-25T19:21:13.305Z,8.60
2022-12-25T19:23:40.913Z,8.59
2022-12-25T19:26:10.002Z,8.62
2022-12-25T19:28:39.268Z,8.63
2022-12-25T19:31:08.392Z,8.59
2022-12-25T19:33:41.414Z,8.59
2022-12-25T19:36:14.711Z,8.59
2022-12-25T19:38:42.670Z,8.60
2022-12-25T19:41:18.538Z,8.61
2022-12-25T19:43:48.312Z,8.63
2022-12-25T19:46:22.058Z,8.59
2022-12-25T19:48:49.659Z,8.61
2022-12-25T19:51:26.795Z,8.60
2022-12-25T19:53:56.204Z,8.55
2022-12-25T19:56:25.107Z,8.57
2022-12-25T19:58:52.222Z,8.60
2022-12-25T20:01:22.277Z,8.58
2022-12-25T20:03:49.915Z,8.61
2022-12-25T20:06:25.828Z,8.60
2022-12-25T20:08:57.226Z,8.59
2022-12-25T20:11:27.113Z,8.60
2022-12-25T20:13:55.513Z,8.61
2022-12-25T20:16:23.913Z,8.61
2022-12-25T20:18:51.920Z,8.60
2022-12-25T20:21:21.731Z,8.61
2022-12-25T20:23:51.528Z,8.61
2022-12-25T20:26:21.930Z,8.61
2022-12-25T20:28:49.397Z,8.61
2022-12-25T20:31:29.575Z,8.61
2022-12-25T20:33:59.709Z,8.62
2022-12-25T20:36:32.591Z,8.66
2022-12-25T20:39:04.374Z,8.62
2022-12-25T20:41:32.096Z,8.64
2022-12-25T20:43:59.891Z,8.63
2022-12-25T20:46:27.349Z,8.65
2022-12-25T20:48:54.952Z,8.64
2022-12-25T20:51:25.183Z,8.63
2022-12-25T20:53:52.614Z,8.66
2022-12-25T20:56:22.869Z,8.65
2022-12-25T20:58:58.604Z,8.64
2022-12-25T21:01:27.275Z,8.63
2022-12-25T21:03:55.098Z,8.67
2022-12-25T21:06:23.489Z,8.64
2022-12-25T21:08:50.717Z,8.64
2022-12-25T21:11:18.070Z,8.65
2022-12-25T21:13:47.094Z,8.65
2022-12-25T21:16:22.018Z,8.66
2022-12-25T21:18:52.260Z,8.69
2022-12-25T21:21:20.090Z,8.67
2022-12-25T21:23:47.748Z,8.68
2022-12-25T21:26:31.384Z,8.71
2022-12-25T21:29:01.299Z,8.69
2022-12-25T21:31:29.931Z,8.70
2022-12-25T21:33:57.730Z,8.71
2022-12-25T21:36:33.842Z,8.71
2022-12-25T21:39:07.840Z,8.72
2022-12-25T21:41:38.242Z,8.73
2022-12-25T21:44:06.890Z,8.72
2022-12-25T21:46:34.496Z,8.73
2022-12-25T21:49:02.628Z,8.74
2022-12-25T21:51:53.100Z,8.75
2022-12-25T21:54:40.663Z,8.74
2022-12-25T21:57:07.799Z,8.77
2022-12-25T21:59:34.851Z,8.79
2022-12-25T22:02:02.026Z,8.79
2022-12-25T22:04:29.311Z,8.81
2022-12-25T22:07:14.806Z,8.78
2022-12-25T22:09:47.696Z,8.79
2022-12-25T22:12:35.411Z,8.80
2022-12-25T22:15:07.307Z,8.85
2022-12-25T22:17:59.705Z,8.86
2022-12-25T22:20:35.910Z,8.85
2022-12-25T22:23:03.588Z,8.86
2022-12-25T22:25:31.045Z,8.83
2022-12-25T22:27:58.139Z,8.83
2022-12-25T22:30:28.880Z,8.82
2022-12-25T22:32:57.097Z,8.87
2022-12-25T22:35:24.527Z,8.88
2022-12-25T22:37:53.313Z,8.87
2022-12-25T22:40:22.810Z,8.87
2022-12-25T22:42:50.710Z,8.87
2022-12-25T22:45:18.035Z,8.88
2022-12-25T22:47:45.186Z,8.88
2022-12-25T22:50:14.987Z,8.92
2022-12-25T22:52:42.827Z,8.87
2022-12-25T22:55:10.343Z,8.89
2022-12-25T22:57:37.623Z,8.89
2022-12-25T23:00:08.658Z,8.89
2022-12-25T23:02:35.961Z,8.87
2022-12-25T23:05:03.941Z,8.91
2022-12-25T23:07:31.100Z,8.93
2022-12-25T23:09:58.393Z,8.94
2022-12-25T23:12:44.361Z,8.93
2022-12-25T23:15:11.579Z,8.93
2022-12-25T23:17:57.246Z,8.91
2022-12-25T23:20:43.030Z,8.91
2022-12-25T23:23:34.827Z,8.95
2022-12-25T23:26:09.327Z,8.96
2022-12-25T23:28:59.245Z,8.95
2022-12-25T23:31:34.422Z,8.93
2022-12-25T23:34:02.621Z,8.95
2022-12-25T23:36:29.687Z,8.98
2022-12-25T23:38:59.239Z,8.96
2022-12-25T23:41:28.779Z,8.90
2022-12-25T23:43:55.841Z,8.93
2022-12-25T23:46:22.999Z,8.96
2022-12-25T23:48:50.143Z,8.91
2022-12-25T23:51:17.295Z,8.93
2022-12-25T23:53:44.340Z,8.96
2022-12-25T23:56:11.425Z,8.93
2022-12-25T23:58:38.720Z,8.95
